Time;durP1;ratioP1;P1;durP2;ratioP2;P2;SDS_P1;SDS_P2;PMS_P1;PMS_P2;Temp;Humidity;BMP_temperature;BMP_pressure;BME280_temperature;BME280_humidity;BME280_pressure;Samples;Min_cycle;Max_cycle;Signal;HPM_P1;HPM_P2
2023/02/16 00:01:33;;;;;;;111.75;57.67;;;;;;;-1.38;85.67;101785.14;1442232;89;21382;-78
2023/02/16 00:04:01;;;;;;;120.30;59.80;;;;;;;-1.37;85.35;101786.84;1445818;89;21332;-79
2023/02/16 00:06:28;;;;;;;121.87;62.53;;;;;;;-1.37;85.81;101777.75;1453713;89;21575;-79
2023/02/16 00:08:56;;;;;;;124.62;63.42;;;;;;;-1.37;85.93;101780.34;1451699;89;21359;-79
2023/02/16 00:14:22;;;;;;;109.30;59.58;;;;;;;-1.42;85.37;101775.70;1423114;89;21281;-79
2023/02/16 00:16:49;;;;;;;116.08;59.70;;;;;;;-1.44;85.33;101776.20;1459967;89;21510;-78
2023/02/16 00:19:32;;;;;;;111.12;57.48;;;;;;;-1.46;85.69;101777.98;1444917;89;21271;-79
2023/02/16 00:21:59;;;;;;;113.65;55.58;;;;;;;-1.47;84.79;101779.30;1452973;89;21449;-78
2023/02/16 00:24:28;;;;;;;103.42;55.43;;;;;;;-1.52;85.51;101778.13;1446796;89;21520;-79
2023/02/16 00:26:56;;;;;;;109.07;56.45;;;;;;;-1.53;85.57;101773.81;1457725;89;22567;-77
2023/02/16 00:29:30;;;;;;;112.25;58.42;;;;;;;-1.50;85.41;101781.52;1453096;88;21463;-79
2023/02/16 00:31:59;;;;;;;111.35;57.60;;;;;;;-1.50;85.73;101777.62;1458136;88;21397;-78
2023/02/16 00:34:42;;;;;;;104.80;57.33;;;;;;;-1.52;86.07;101780.73;1450786;89;21479;-79
2023/02/16 00:37:12;;;;;;;110.65;56.55;;;;;;;-1.51;86.05;101778.53;1453674;89;21955;-80
2023/02/16 00:39:40;;;;;;;103.50;54.40;;;;;;;-1.51;86.37;101781.12;1451153;89;21375;-78
2023/02/16 00:42:23;;;;;;;103.22;53.68;;;;;;;-1.51;86.57;101783.72;1441328;90;21391;-78
2023/02/16 00:44:56;;;;;;;104.63;55.55;;;;;;;-1.52;86.14;101778.13;1448191;89;21589;-77
2023/02/16 00:47:39;;;;;;;109.37;57.17;;;;;;;-1.54;86.29;101783.80;1431331;90;22314;-79
2023/02/16 00:50:23;;;;;;;106.43;55.23;;;;;;;-1.57;86.38;101778.69;1441016;90;21383;-78
2023/02/16 00:52:50;;;;;;;108.75;54.42;;;;;;;-1.62;87.26;101787.02;1440942;89;21471;-79
2023/02/16 00:55:20;;;;;;;103.95;54.35;;;;;;;-1.68;86.89;101783.28;1441077;90;21345;-80
2023/02/16 00:58:07;;;;;;;106.65;53.92;;;;;;;-1.69;86.88;101784.17;1439109;90;22255;-80
2023/02/16 01:00:46;;;;;;;96.25;51.02;;;;;;;-1.72;86.37;101785.55;1441745;90;22411;-79
2023/02/16 01:03:18;;;;;;;99.77;51.75;;;;;;;-1.78;86.70;101781.77;1440209;90;21620;-80
2023/02/16 01:05:46;;;;;;;101.87;53.60;;;;;;;-1.78;86.35;101781.35;1439991;90;21457;-80
2023/02/16 01:13:30;;;;;;;117.40;58.95;;;;;;;-1.83;86.09;101778.84;1441783;90;21589;-79
2023/02/16 01:15:56;;;;;;;114.35;60.25;;;;;;;-1.85;86.27;101771.53;1441853;90;21441;-79
2023/02/16 01:18:23;;;;;;;116.88;60.38;;;;;;;-1.88;85.98;101765.12;1437302;90;22507;-79
2023/02/16 01:20:49;;;;;;;107.37;55.60;;;;;;;-1.90;86.61;101763.03;1439158;90;21353;-79
2023/02/16 01:23:15;;;;;;;116.95;58.95;;;;;;;-1.89;86.50;101767.31;1435642;90;21575;-79
2023/02/16 01:25:41;;;;;;;110.25;57.13;;;;;;;-1.88;86.26;101762.97;1439348;90;21368;-78
2023/02/16 01:28:24;;;;;;;103.67;54.73;;;;;;;-1.89;86.23;101759.98;1440837;90;21599;-79
2023/02/16 01:30:52;;;;;;;100.65;55.10;;;;;;;-1.90;86.75;101758.26;1436316;90;21524;-79
2023/02/16 01:33:20;;;;;;;107.43;54.77;;;;;;;-1.91;86.50;101756.56;1442815;90;22822;-79
2023/02/16 01:35:47;;;;;;;102.15;53.73;;;;;;;-1.90;86.02;101752.65;1430889;90;21553;-78
2023/02/16 01:38:27;;;;;;;110.60;56.18;;;;;;;-1.90;86.17;101752.65;1436032;90;21530;-79
2023/02/16 01:41:21;;;;;;;100.92;53.42;;;;;;;-1.91;86.52;101750.07;1439647;90;21369;-79
2023/02/16 01:43:46;;;;;;;114.70;55.15;;;;;;;-1.93;86.22;101752.69;1417214;90;22500;-80
2023/02/16 01:46:18;;;;;;;114.92;55.28;;;;;;;-1.96;87.17;101747.57;1438818;90;21442;-79
2023/02/16 01:48:44;;;;;;;101.82;52.65;;;;;;;-1.96;86.86;101748.02;1446797;90;21464;-78
2023/02/16 01:51:30;;;;;;;102.25;51.95;;;;;;;-1.96;87.44;101745.42;1441399;90;21405;-80
2023/02/16 01:54:40;;;;;;;95.62;51.15;;;;;;;-1.94;87.20;101750.14;1441705;90;22062;-80
2023/02/16 01:57:38;;;;;;;104.58;54.15;;;;;;;-1.90;87.23;101746.16;1439153;90;21436;-79
2023/02/16 02:00:16;;;;;;;100.25;52.65;;;;;;;-1.83;87.72;101739.92;1434505;90;21493;-80
2023/02/16 02:02:48;;;;;;;99.28;50.50;;;;;;;-1.82;87.45;101739.02;1451720;90;22233;-80
2023/02/16 02:05:34;;;;;;;100.75;53.92;;;;;;;-1.80;87.30;101736.85;1438695;90;21457;-80
2023/02/16 02:08:18;;;;;;;98.65;53.23;;;;;;;-1.80;87.67;101738.16;1438889;90;21449;-79
2023/02/16 02:11:01;;;;;;;91.53;48.13;;;;;;;-1.86;87.09;101733.51;1442182;90;21633;-80
2023/02/16 02:13:38;;;;;;;105.58;51.08;;;;;;;-1.87;86.54;101731.81;1406014;92;21524;-80
2023/02/16 02:16:05;;;;;;;98.52;51.50;;;;;;;-1.86;86.93;101724.87;1441240;90;21405;-80
2023/02/16 02:18:32;;;;;;;97.25;49.05;;;;;;;-1.89;87.23;101730.98;1415763;90;21549;-79
2023/02/16 02:24:46;;;;;;;94.95;50.78;;;;;;;-1.95;86.79;101730.28;1440189;90;21398;-78
2023/02/16 02:27:35;;;;;;;96.57;50.48;;;;;;;-2.05;87.46;101727.03;1439891;90;22572;-78
2023/02/16 02:30:38;;;;;;;103.50;52.38;;;;;;;-2.05;87.50;101732.22;1438887;90;21464;-77
2023/02/16 02:33:33;;;;;;;98.17;51.48;;;;;;;-2.06;87.36;101720.15;1415034;92;21609;-78
2023/02/16 02:36:18;;;;;;;99.10;53.38;;;;;;;-2.06;87.39;101722.30;1407976;93;21616;-79
2023/02/16 02:39:19;;;;;;;98.85;51.92;;;;;;;-2.07;87.20;101721.05;1412963;93;21601;-76
2023/02/16 02:42:03;;;;;;;94.28;51.20;;;;;;;-2.09;87.18;101716.33;1411281;93;21516;-76
2023/02/16 02:44:34;;;;;;;98.52;53.23;;;;;;;-2.07;86.52;101714.11;1407329;93;21673;-78
2023/02/16 02:47:00;;;;;;;93.78;50.83;;;;;;;-2.03;86.57;101716.64;1407664;93;21413;-81
2023/02/16 02:49:26;;;;;;;95.20;50.58;;;;;;;-2.00;86.48;101713.52;1388364;93;21442;-79
2023/02/16 02:51:53;;;;;;;97.30;50.17;;;;;;;-1.97;86.87;101716.04;1393178;93;21516;-80
2023/02/16 03:00:42;;;;;;;90.60;47.08;;;;;;;-1.96;87.08;101720.33;1406048;93;21783;-79
2023/02/16 03:03:23;;;;;;;92.78;47.45;;;;;;;-1.99;87.09;101713.91;1413360;93;21730;-80
2023/02/16 03:05:54;;;;;;;95.30;49.03;;;;;;;-1.98;87.20;101719.98;1412777;93;21479;-81
2023/02/16 03:08:23;;;;;;;;;;;;;;;-2.00;87.10;101713.97;1437723;90;21471;-80
2023/02/16 03:13:55;;;;;;;95.30;47.53;;;;;;;-2.06;87.85;101709.77;1439975;90;21582;-81
2023/02/16 03:16:39;;;;;;;94.90;50.15;;;;;;;-2.08;87.78;101704.61;1436611;90;21589;-80
2023/02/16 03:30:23;;;;;;;89.62;48.28;;;;;;;-2.11;88.48;101699.48;1444363;90;21641;-81
2023/02/16 03:32:51;;;;;;;95.15;49.60;;;;;;;-2.12;88.42;101693.06;1436942;90;21486;-79
2023/02/16 03:35:18;;;;;;;104.43;51.68;;;;;;;-2.12;88.44;101696.95;1443413;90;21546;-79
2023/02/16 03:37:44;;;;;;;96.95;47.48;;;;;;;-2.11;89.03;101696.05;1435950;90;21382;-78
2023/02/16 03:40:27;;;;;;;93.12;49.38;;;;;;;-2.10;89.98;101696.45;1444341;90;21339;-79
2023/02/16 03:42:57;;;;;;;92.25;49.20;;;;;;;-2.09;90.25;101691.69;1436376;90;21383;-79
2023/02/16 03:45:24;;;;;;;104.85;50.88;;;;;;;-2.08;89.67;101689.48;1446188;90;22417;-81
2023/02/16 03:47:51;;;;;;;104.40;51.65;;;;;;;-2.06;89.52;101694.20;1439829;90;21530;-80
2023/02/16 03:50:17;;;;;;;95.92;49.50;;;;;;;-2.04;89.39;101696.33;1434828;90;21412;-80
2023/02/16 03:52:43;;;;;;;91.08;47.35;;;;;;;-2.00;89.69;101693.21;1438256;90;21369;-79
2023/02/16 03:55:10;;;;;;;104.35;54.15;;;;;;;-1.98;89.84;101688.39;1438320;90;22343;-80
2023/02/16 03:57:36;;;;;;;106.20;51.42;;;;;;;-1.97;89.89;101691.39;1435157;90;21383;-79
2023/02/16 04:00:03;;;;;;;96.00;52.27;;;;;;;-1.94;89.75;101688.72;1435662;90;21435;-80
2023/02/16 04:02:29;;;;;;;91.37;48.25;;;;;;;-1.92;90.32;101688.70;1442677;90;21478;-80
2023/02/16 04:04:56;;;;;;;101.97;53.25;;;;;;;-1.91;89.97;101689.09;1441408;90;21390;-79
2023/02/16 04:07:22;;;;;;;93.25;47.10;;;;;;;-1.92;89.86;101688.25;1441254;90;21346;-79
2023/02/16 04:09:48;;;;;;;101.35;51.28;;;;;;;-1.90;89.52;101687.77;1444141;90;22941;-80
2023/02/16 04:14:59;;;;;;;86.12;45.65;;;;;;;-1.93;90.01;101681.33;1443966;90;21435;-81
2023/02/16 04:17:25;;;;;;;94.90;46.90;;;;;;;-2.02;90.30;101678.96;1442782;90;22070;-79
2023/02/16 04:19:51;;;;;;;90.42;49.00;;;;;;;-2.07;90.27;101678.24;1447607;90;21435;-79
2023/02/16 04:22:18;;;;;;;100.10;51.23;;;;;;;-2.09;90.33;101677.42;1414794;90;21412;-79
2023/02/16 04:24:44;;;;;;;90.62;46.80;;;;;;;-2.10;89.61;101671.80;1434722;90;21575;-80
2023/02/16 04:27:10;;;;;;;89.13;47.30;;;;;;;-2.12;88.89;101676.20;1416231;90;22332;-80
2023/02/16 04:29:36;;;;;;;93.85;46.37;;;;;;;-2.12;88.49;101666.66;1432076;90;21464;-80
2023/02/16 04:32:03;;;;;;;90.12;49.93;;;;;;;-2.12;88.50;101663.23;1433228;90;21523;-79
2023/02/16 04:34:31;;;;;;;94.65;49.80;;;;;;;-2.13;88.38;101662.38;1440292;90;21465;-80
2023/02/16 04:36:58;;;;;;;92.65;48.90;;;;;;;-2.11;88.53;101663.63;1445633;90;21494;-79
2023/02/16 04:39:24;;;;;;;93.92;49.23;;;;;;;-2.11;88.59;101662.33;1445222;90;21563;-80
2023/02/16 04:41:50;;;;;;;90.22;47.20;;;;;;;-2.08;88.43;101654.47;1443905;90;21391;-81
2023/02/16 04:44:17;;;;;;;100.15;51.80;;;;;;;-2.05;89.75;101659.58;1442425;90;21597;-81
2023/02/16 04:46:49;;;;;;;100.85;52.62;;;;;;;-2.02;90.27;101662.09;1435929;90;21450;-81
2023/02/16 04:49:15;;;;;;;98.10;49.73;;;;;;;-1.98;89.92;101656.41;1439511;90;21586;-81
2023/02/16 04:51:41;;;;;;;100.18;52.95;;;;;;;-1.97;90.52;101652.47;1431034;90;21613;-81
2023/02/16 04:54:08;;;;;;;100.85;53.73;;;;;;;-1.93;89.88;101655.83;1441554;90;22381;-79
2023/02/16 04:56:34;;;;;;;92.55;48.95;;;;;;;-1.93;90.46;101655.83;1440354;90;21559;-79
2023/02/16 04:59:00;;;;;;;98.95;50.33;;;;;;;-1.94;91.40;101662.77;1438438;90;21413;-79
2023/02/16 05:01:27;;;;;;;94.45;48.05;;;;;;;-1.94;90.67;101662.77;1445015;90;21574;-80
2023/02/16 05:03:54;;;;;;;88.35;48.87;;;;;;;-1.94;90.16;101658.88;1440682;90;21302;-80
2023/02/16 05:06:21;;;;;;;94.22;50.38;;;;;;;-1.95;89.67;101657.19;1429660;90;22316;-80
2023/02/16 05:08:48;;;;;;;88.52;46.50;;;;;;;-1.96;89.57;101656.75;1440500;90;21442;-80
2023/02/16 05:16:45;;;;;;;83.20;46.15;;;;;;;-1.95;89.31;101655.89;1442475;90;22263;-80
2023/02/16 05:19:12;;;;;;;110.88;50.25;;;;;;;-1.96;89.29;101666.28;1443009;90;21560;-80
2023/02/16 05:21:38;;;;;;;94.80;49.85;;;;;;;-1.98;89.41;101661.16;1437296;90;22189;-80
2023/02/16 05:24:08;;;;;;;90.95;45.70;;;;;;;-1.99;89.49;101654.23;1435405;90;21553;-80
2023/02/16 05:26:38;;;;;;;100.78;51.55;;;;;;;-1.99;89.51;101651.64;1446456;90;22481;-78
2023/02/16 05:29:05;;;;;;;94.05;49.35;;;;;;;-2.00;89.38;101662.92;1446743;90;21457;-78
2023/02/16 05:31:32;;;;;;;90.35;46.73;;;;;;;-2.03;90.39;101665.59;1436275;90;21583;-76
2023/02/16 05:33:58;;;;;;;93.75;45.70;;;;;;;-2.07;90.46;101662.23;1443357;90;21516;-78
2023/02/16 05:36:24;;;;;;;102.87;47.53;;;;;;;-2.12;91.15;101665.81;1454196;90;22551;-79
2023/02/16 05:38:51;;;;;;;105.50;48.08;;;;;;;-2.17;90.89;101666.37;1435586;90;21575;-78
2023/02/16 05:41:23;;;;;;;89.65;44.53;;;;;;;-2.22;90.84;101669.50;1443876;90;22286;-78
2023/02/16 05:43:56;;;;;;;89.62;47.35;;;;;;;-2.26;90.64;101670.03;1445936;90;21519;-78
2023/02/16 05:46:24;;;;;;;87.80;46.18;;;;;;;-2.32;90.30;101674.91;1437104;90;21442;-77
2023/02/16 05:48:51;;;;;;;95.12;50.60;;;;;;;-2.35;90.59;101676.73;1431077;90;22484;-78
2023/02/16 05:51:18;;;;;;;90.05;49.75;;;;;;;-2.37;90.83;101679.78;1440383;90;21405;-78
2023/02/16 05:53:44;;;;;;;92.37;47.67;;;;;;;-2.38;90.44;101680.23;1444769;90;21374;-78
2023/02/16 05:56:11;;;;;;;105.10;48.70;;;;;;;-2.39;90.02;101683.70;1438542;90;21323;-78
2023/02/16 05:58:37;;;;;;;232.85;53.58;;;;;;;-2.38;90.17;101680.23;1435832;90;21443;-77
2023/02/16 06:01:04;;;;;;;123.90;52.08;;;;;;;-2.38;89.75;101679.39;1417451;90;21498;-78
2023/02/16 06:03:31;;;;;;;99.07;47.35;;;;;;;-2.35;89.56;101685.35;1419027;90;22455;-80
2023/02/16 06:06:00;;;;;;;92.67;49.00;;;;;;;-2.35;89.51;101682.76;1448636;90;21383;-78
2023/02/16 06:08:28;;;;;;;108.60;47.83;;;;;;;-2.36;89.17;101691.44;1449498;90;22510;-78
2023/02/16 06:10:55;;;;;;;97.25;51.53;;;;;;;-2.33;89.07;101690.07;1452045;90;21442;-78
2023/02/16 06:13:22;;;;;;;93.60;50.80;;;;;;;-2.30;89.34;101688.70;1436592;90;21397;-78
2023/02/16 06:15:52;;;;;;;113.83;47.53;;;;;;;-2.28;88.93;101695.98;1443084;90;22440;-77
2023/02/16 06:18:19;;;;;;;106.52;51.33;;;;;;;-2.25;88.54;101691.63;1437999;90;21325;-76
2023/02/16 06:20:45;;;;;;;104.07;53.52;;;;;;;-2.24;88.42;101694.61;1443616;90;21375;-78
2023/02/16 06:23:12;;;;;;;105.43;54.50;;;;;;;-2.25;88.44;101696.81;1442109;90;22167;-78
2023/02/16 06:25:44;;;;;;;113.65;57.10;;;;;;;-2.28;88.41;101699.02;1441201;90;21845;-80
2023/02/16 06:28:11;;;;;;;121.67;58.10;;;;;;;-2.30;88.50;101691.75;1442075;90;21589;-80
2023/02/16 06:30:37;;;;;;;128.57;60.55;;;;;;;-2.30;88.67;101693.89;1442248;90;22322;-80
2023/02/16 06:33:03;;;;;;;137.18;61.48;;;;;;;-2.26;88.90;101699.85;1439762;90;21377;-79
2023/02/16 06:35:30;;;;;;;127.22;60.10;;;;;;;-2.20;89.12;101693.22;1438793;90;21523;-79
2023/02/16 06:37:58;;;;;;;126.27;60.65;;;;;;;-2.12;89.34;101693.91;1441848;90;21280;-81
2023/02/16 06:40:24;;;;;;;132.57;60.38;;;;;;;-2.07;89.17;101693.36;1439240;90;21346;-81
2023/02/16 06:42:51;;;;;;;169.40;61.25;;;;;;;-1.99;89.28;101694.91;1439422;90;21412;-83
2023/02/16 06:45:17;;;;;;;122.67;57.90;;;;;;;-1.94;89.31;101695.20;1446187;90;21598;-82
2023/02/16 06:47:43;;;;;;;106.95;54.80;;;;;;;-1.86;89.04;101693.28;1443013;90;22085;-81
2023/02/16 06:50:13;;;;;;;124.67;61.77;;;;;;;-1.80;89.18;101692.28;1437816;90;21464;-86
2023/02/16 06:52:41;;;;;;;153.82;62.13;;;;;;;-1.75;89.71;101693.48;1448632;90;21456;-81
2023/02/16 06:55:08;;;;;;;116.73;58.52;;;;;;;-1.71;89.64;101686.01;1435385;90;22219;-83
2023/02/16 06:57:34;;;;;;;135.45;65.30;;;;;;;-1.61;89.48;101693.98;1434422;90;21391;-82
2023/02/16 07:00:00;;;;;;;162.72;71.07;;;;;;;-1.53;89.63;101693.31;1441603;90;21575;-82
2023/02/16 07:02:26;;;;;;;137.47;65.55;;;;;;;-1.45;89.59;101683.59;1437302;90;21478;-82
2023/02/16 07:04:53;;;;;;;135.35;62.95;;;;;;;-1.32;89.59;101685.44;1440099;90;22412;-82
2023/02/16 07:07:20;;;;;;;161.22;71.37;;;;;;;-1.21;89.90;101682.52;1440758;90;21383;-82
2023/02/16 07:09:46;;;;;;;161.92;75.78;;;;;;;-1.08;89.89;101684.36;1434689;90;22374;-83
2023/02/16 07:12:12;;;;;;;156.32;80.97;;;;;;;-0.96;89.74;101684.85;1445486;90;21515;-82
2023/02/16 07:14:38;;;;;;;159.70;77.92;;;;;;;-0.82;89.67;101677.97;1420273;90;21413;-80
2023/02/16 07:17:04;;;;;;;168.85;82.42;;;;;;;-0.65;89.77;101681.37;1443215;90;21576;-82
2023/02/16 07:19:32;;;;;;;179.00;86.35;;;;;;;-0.49;89.75;101681.34;1436088;90;21515;-82
2023/02/16 07:22:00;;;;;;;189.43;89.45;;;;;;;-0.35;89.58;101674.39;1444387;90;21643;-82
2023/02/16 07:24:27;;;;;;;175.12;87.35;;;;;;;-0.22;89.39;101673.58;1366447;90;21514;-85
2023/02/16 07:26:55;;;;;;;165.35;86.95;;;;;;;-0.10;89.44;101670.58;1373233;90;21264;-82
2023/02/16 07:29:21;;;;;;;162.60;85.65;;;;;;;0.03;89.57;101669.75;1366676;90;21468;-82
2023/02/16 07:31:48;;;;;;;161.45;80.83;;;;;;;0.15;89.44;101667.19;1367762;90;21273;-84
2023/02/16 07:34:14;;;;;;;150.60;74.30;;;;;;;0.29;89.39;101666.28;1367882;90;22265;-85
2023/02/16 07:36:40;;;;;;;113.17;60.27;;;;;;;0.45;89.49;101666.14;1395524;90;21654;-82
2023/02/16 07:39:08;;;;;;;107.63;59.80;;;;;;;0.64;89.86;101668.13;1438287;90;22958;-81
2023/02/16 07:41:34;;;;;;;118.83;62.37;;;;;;;0.83;89.83;101663.94;1416656;90;21779;-82
2023/02/16 07:44:00;;;;;;;95.50;49.97;;;;;;;1.00;90.05;101658.13;1439636;90;21705;-82
2023/02/16 07:46:27;;;;;;;89.47;50.13;;;;;;;1.17;90.49;101656.20;1440097;90;21647;-81
2023/02/16 07:48:53;;;;;;;85.10;46.80;;;;;;;1.30;90.25;101657.45;1440823;90;21548;-83
2023/02/16 07:51:29;;;;;;;95.50;51.70;;;;;;;1.41;89.63;101662.70;1438681;90;21556;-80
2023/02/16 07:53:57;;;;;;;90.63;49.93;;;;;;;1.54;89.67;101656.11;1521164;90;21472;-84
2023/02/16 07:56:31;;;;;;;90.03;49.83;;;;;;;1.61;89.34;101645.81;1366078;90;22424;-82
2023/02/16 07:58:59;;;;;;;78.23;45.10;;;;;;;1.71;89.25;101656.30;1376440;90;21492;-81
2023/02/16 08:01:28;;;;;;;74.87;44.30;;;;;;;1.88;89.31;101653.48;1365661;90;21582;-82
2023/02/16 08:03:55;;;;;;;77.57;44.90;;;;;;;2.04;89.22;101646.70;1365133;90;21587;-82
2023/02/16 08:06:22;;;;;;;74.37;43.70;;;;;;;2.19;88.64;101648.70;1367252;90;22303;-82
2023/02/16 08:08:48;;;;;;;77.70;42.60;;;;;;;2.33;88.45;101647.25;1367520;90;21526;-81
2023/02/16 08:11:22;;;;;;;81.60;46.37;;;;;;;2.45;88.01;101650.67;1367354;90;21496;-82
2023/02/16 08:13:48;;;;;;;78.37;44.23;;;;;;;2.56;87.83;101652.37;1521235;90;21637;-77
2023/02/16 08:16:21;;;;;;;75.17;44.77;;;;;;;2.70;87.69;101646.52;1513547;90;21842;-82
2023/02/16 08:18:49;;;;;;;70.57;42.80;;;;;;;2.83;87.52;101648.99;1521241;90;22310;-82
2023/02/16 08:21:19;;;;;;;79.93;43.53;;;;;;;3.16;87.41;101651.87;1371634;90;21753;-82
2023/02/16 08:23:52;;;;;;;67.77;41.33;;;;;;;3.16;87.41;101651.87;1364152;90;21726;-83
2023/02/16 08:26:21;;;;;;;70.80;41.93;;;;;;;3.34;85.08;101637.08;1521217;90;21783;-85
2023/02/16 08:33:04;;;;;;;72.90;40.80;;;;;;;3.50;84.79;101639.81;1521276;90;21667;-84
2023/02/16 08:35:31;;;;;;;75.07;42.93;;;;;;;3.71;83.77;101638.40;1367784;90;21836;-83
2023/02/16 08:38:01;;;;;;;71.20;41.27;;;;;;;3.71;83.77;101638.40;1367365;90;22539;-82
2023/02/16 08:40:28;;;;;;;81.03;42.13;;;;;;;3.78;82.70;101638.50;1367106;90;21995;-81
2023/02/16 08:42:55;;;;;;;70.23;41.57;;;;;;;3.78;82.70;101638.50;1372761;90;22168;-83
2023/02/16 08:45:21;;;;;;;71.80;42.83;;;;;;;3.86;82.85;101624.58;1368290;90;21996;-82
2023/02/16 08:47:47;;;;;;;63.23;37.87;;;;;;;4.01;82.94;101626.44;1347306;92;22137;-83
2023/02/16 08:50:15;;;;;;;65.23;38.97;;;;;;;4.15;82.51;101618.36;1367967;90;22006;-81
2023/02/16 08:52:42;;;;;;;62.80;37.37;;;;;;;4.25;81.43;101624.81;1370059;90;22925;-80
2023/02/16 08:55:08;;;;;;;67.23;40.50;;;;;;;4.32;81.59;101631.45;1364229;90;21955;-84
2023/02/16 08:57:34;;;;;;;62.83;38.53;;;;;;;4.35;80.10;101631.77;1368474;90;22158;-84
2023/02/16 09:02:45;;;;;;;69.43;40.47;;;;;;;4.49;79.81;101626.20;1521242;90;21910;-83
2023/02/16 09:05:12;;;;;;;66.73;38.87;;;;;;;4.61;80.21;101629.95;1373711;90;23054;-83
2023/02/16 09:07:38;;;;;;;66.23;39.93;;;;;;;4.79;80.22;101627.30;1367757;90;21957;-82
2023/02/16 09:10:10;;;;;;;70.37;42.67;;;;;;;4.89;79.02;101628.05;1368082;90;21331;-83
2023/02/16 09:12:36;;;;;;;75.20;41.97;;;;;;;4.95;77.93;101626.41;1368310;90;21406;-81
2023/02/16 09:15:03;;;;;;;65.47;40.03;;;;;;;5.05;78.18;101625.91;1373986;90;22339;-81
2023/02/16 09:17:29;;;;;;;65.70;40.10;;;;;;;5.14;77.46;101597.38;1367907;90;22160;-82
2023/02/16 09:19:56;;;;;;;66.23;42.00;;;;;;;5.26;77.67;101616.00;1368549;90;21339;-83
2023/02/16 09:22:22;;;;;;;63.30;40.97;;;;;;;5.32;76.18;101623.10;1368296;90;21428;-83
2023/02/16 09:24:48;;;;;;;61.03;38.50;;;;;;;5.49;77.55;101619.98;1367923;90;22123;-84
2023/02/16 09:27:14;;;;;;;67.00;41.83;;;;;;;5.63;76.72;101621.38;1374390;90;21457;-83
2023/02/16 09:29:40;;;;;;;71.00;41.03;;;;;;;5.68;74.83;101623.28;1421597;90;21398;-82
2023/02/16 09:32:08;;;;;;;66.30;42.63;;;;;;;5.90;74.86;101617.66;1414129;90;22476;-82
2023/02/16 09:34:36;;;;;;;64.17;39.80;;;;;;;6.33;74.13;101617.81;1418477;90;21854;-89
2023/02/16 09:37:03;;;;;;;61.07;39.43;;;;;;;6.75;72.04;101614.35;1441009;90;21448;-81
2023/02/16 09:39:29;;;;;;;67.60;37.30;;;;;;;7.30;71.98;101623.70;1441727;90;21338;-84
2023/02/16 09:42:25;;;;;;;65.57;38.80;;;;;;;7.87;68.88;101614.30;1441060;90;22534;-85
2023/02/16 09:45:12;;;;;;;62.90;40.70;;;;;;;8.39;66.59;101613.47;1441816;90;22246;-81
2023/02/16 09:47:43;;;;;;;61.80;42.00;;;;;;;8.99;65.81;101615.94;1348949;90;22189;-82
2023/02/16 09:50:28;;;;;;;60.10;39.30;;;;;;;9.47;64.22;101614.22;1444779;90;21501;-83
2023/02/16 09:52:59;;;;;;;60.57;41.20;;;;;;;9.66;62.14;101611.55;1440994;90;21339;-85
2023/02/16 09:55:46;;;;;;;58.73;39.93;;;;;;;9.84;61.59;101606.23;1440194;90;21442;-85
2023/02/16 09:58:27;;;;;;;52.63;38.50;;;;;;;9.97;59.70;101610.59;1518680;90;21406;-85
2023/02/16 10:01:08;;;;;;;58.50;37.78;;;;;;;10.26;61.02;101610.56;1442564;90;22470;-83
2023/02/16 10:03:55;;;;;;;;;;;;;;;10.55;58.04;101606.19;1442574;90;21648;-82
2023/02/16 10:07:00;;;;;;;61.17;38.20;;;;;;;10.88;59.10;101605.87;1438470;90;20400;-85
2023/02/16 10:09:28;;;;;;;44.90;30.97;;;;;;;11.11;56.65;101606.69;1437801;90;21441;-84
2023/02/16 10:12:12;;;;;;;45.73;33.13;;;;;;;11.18;57.62;101607.39;1372166;90;21362;-86
2023/02/16 10:15:04;;;;;;;52.77;34.47;;;;;;;10.86;53.59;101603.81;1368060;90;21317;-83
2023/02/16 10:17:47;;;;;;;43.70;32.93;;;;;;;10.99;55.47;101601.86;1438681;90;22300;-85
2023/02/16 10:20:20;;;;;;;48.77;35.33;;;;;;;10.86;53.97;101592.73;1438301;90;22499;-84
2023/02/16 10:23:33;;;;;;;46.73;35.30;;;;;;;11.11;54.53;101601.39;1439472;90;21552;-84
2023/02/16 10:26:14;;;;;;;49.83;35.80;;;;;;;10.92;53.88;101600.67;1437323;90;21405;-84
2023/02/16 10:28:57;;;;;;;46.00;34.27;;;;;;;11.16;54.82;101592.08;1441884;90;21441;-85
2023/02/16 10:31:47;;;;;;;51.03;36.83;;;;;;;11.18;53.63;101594.62;1442412;90;21308;-85
2023/02/16 10:34:31;;;;;;;52.93;37.17;;;;;;;11.33;55.41;101596.03;1441281;90;21411;-84
2023/02/16 10:37:25;;;;;;;47.73;34.90;;;;;;;11.45;54.34;101591.54;1440137;90;21584;-86
2023/02/16 10:40:24;;;;;;;50.03;36.37;;;;;;;11.24;52.82;101590.98;1437251;90;22345;-86
2023/02/16 10:43:20;;;;;;;54.97;36.53;;;;;;;10.98;52.62;101589.10;1439443;90;21568;-85
2023/02/16 10:45:58;;;;;;;47.13;35.23;;;;;;;10.90;52.58;101586.70;1370658;90;21383;-85
2023/02/16 10:48:25;;;;;;;50.20;37.60;;;;;;;10.91;53.53;101577.81;1497075;90;21390;-85
2023/02/16 10:51:11;;;;;;;50.73;36.10;;;;;;;10.87;52.85;101581.16;1367512;90;21383;-85
2023/02/16 10:53:54;;;;;;;49.87;34.53;;;;;;;11.12;54.48;101585.36;1521232;90;21192;-83
2023/02/16 10:56:53;;;;;;;51.47;36.40;;;;;;;11.22;54.43;101581.02;1370114;90;21420;-85
2023/02/16 10:59:38;;;;;;;49.77;35.67;;;;;;;11.29;53.49;101576.05;1517941;90;21191;-82
2023/02/16 11:02:24;;;;;;;51.07;36.83;;;;;;;11.38;54.00;101575.30;1441256;90;21368;-85
2023/02/16 11:04:53;;;;;;;48.97;33.80;;;;;;;11.37;54.10;101579.42;1455160;90;21280;-86
2023/02/16 11:07:24;;;;;;;45.77;33.30;;;;;;;11.24;54.22;101580.88;1521308;90;21421;-84
2023/02/16 11:09:54;;;;;;;49.65;36.65;;;;;;;11.01;53.75;101583.55;1404690;90;22149;-85
2023/02/16 11:12:34;;;;;;;51.70;35.60;;;;;;;11.02;53.68;101579.13;1369974;90;21325;-85
2023/02/16 11:15:17;;;;;;;43.10;34.60;;;;;;;11.02;53.63;101573.83;1521445;90;21169;-84
2023/02/16 11:18:06;;;;;;;49.87;36.87;;;;;;;10.84;53.43;101574.30;1521210;90;21199;-87
2023/02/16 11:20:44;;;;;;;54.40;39.27;;;;;;;10.65;53.13;101567.95;1521067;90;21332;-84
2023/02/16 11:23:30;;;;;;;48.27;36.93;;;;;;;10.76;54.09;101558.20;1370533;90;21346;-83
2023/02/16 11:26:12;;;;;;;58.30;36.63;;;;;;;10.57;53.82;101553.98;1452130;90;21640;-86
2023/02/16 11:28:45;;;;;;;47.63;35.90;;;;;;;10.78;54.47;101550.95;1410056;92;21856;-85
2023/02/16 11:31:37;;;;;;;46.47;35.37;;;;;;;10.68;53.81;101544.72;1406781;93;21616;-83
2023/02/16 11:34:08;;;;;;;56.53;34.47;;;;;;;10.80;54.28;101546.38;1406450;93;21654;-83
2023/02/16 11:36:42;;;;;;;50.37;35.83;;;;;;;10.89;54.72;101534.70;1402754;93;21612;-84
2023/02/16 11:39:26;;;;;;;50.87;35.57;;;;;;;10.88;53.86;101537.00;1405322;93;21582;-84
2023/02/16 11:41:57;;;;;;;53.33;37.63;;;;;;;10.96;54.43;101533.23;1408063;93;21406;-81
2023/02/16 11:44:38;;;;;;;50.28;35.65;;;;;;;10.95;53.52;101525.78;1409090;93;22547;-81
2023/02/16 11:47:24;;;;;;;49.42;33.58;;;;;;;10.99;54.21;101529.88;1410190;93;21449;-82
2023/02/16 11:50:12;;;;;;;45.37;32.87;;;;;;;11.01;53.84;101525.28;1409917;93;21465;-81
2023/02/16 11:52:39;;;;;;;51.77;36.17;;;;;;;10.88;53.87;101524.59;1404591;93;21478;-83
2023/02/16 11:55:10;;;;;;;55.97;39.17;;;;;;;11.04;53.96;101522.87;1403791;93;21547;-83
2023/02/16 11:57:37;;;;;;;45.77;32.50;;;;;;;11.08;54.10;101521.67;1406193;93;21561;-83
2023/02/16 12:00:18;;;;;;;51.73;34.83;;;;;;;10.88;54.00;101511.84;1407226;93;21487;-81
2023/02/16 12:03:02;;;;;;;48.60;33.45;;;;;;;10.43;54.26;101515.84;1403650;93;21578;-82
2023/02/16 12:05:54;;;;;;;45.33;32.17;;;;;;;10.20;55.02;101507.84;1414426;90;21649;-82
2023/02/16 12:08:40;;;;;;;59.93;36.27;;;;;;;9.84;55.93;101516.78;1441833;90;21398;-83
2023/02/16 12:11:18;;;;;;;47.77;34.50;;;;;;;9.53;56.84;101506.38;1521168;90;22094;-83
2023/02/16 12:13:58;;;;;;;47.07;32.27;;;;;;;9.37;57.69;101503.53;1520750;90;21415;-84
2023/02/16 12:17:05;;;;;;;50.10;34.30;;;;;;;9.03;58.87;101502.06;1514660;90;21340;-81
2023/02/16 12:19:42;;;;;;;49.73;35.50;;;;;;;8.94;59.11;101495.27;1515608;90;21287;-81
2023/02/16 12:22:31;;;;;;;61.00;40.43;;;;;;;8.97;59.49;101493.24;1521232;90;21221;-82